Time;durP1;ratioP1;P1;durP2;ratioP2;P2;SDS_P1;SDS_P2;PMS_P1;PMS_P2;Temp;Humidity;BMP_temperature;BMP_pressure;BME280_temperature;BME280_humidity;BME280_pressure;Samples;Min_cycle;Max_cycle;Signal;HPM_P1;HPM_P2
2023/12/26 00:00:30;;;;;;;16.17;3.23;;;4.30;1.00;;;;;;9804836;30;20232;-81
2023/12/26 00:05:52;;;;;;;16.47;3.47;;;4.20;1.00;;;;;;9816980;30;20231;-80
2023/12/26 00:11:15;;;;;;;19.07;3.83;;;4.20;1.00;;;;;;9810221;30;20245;-79
2023/12/26 00:16:36;;;;;;;17.77;3.53;;;4.20;1.00;;;;;;9796108;30;20266;-85
2023/12/26 00:21:57;;;;;;;11.60;3.50;;;4.20;1.00;;;;;;9793258;30;20278;-86
2023/12/26 00:27:19;;;;;;;18.33;3.27;;;4.20;1.00;;;;;;9808504;30;20219;-80
2023/12/26 00:32:40;;;;;;;18.27;3.60;;;4.20;17.00;;;;;;9810912;30;20208;-79
2023/12/26 00:38:01;;;;;;;17.43;3.83;;;4.20;13.80;;;;;;9798130;30;20237;-79
2023/12/26 00:43:23;;;;;;;10.17;2.67;;;4.20;1.00;;;;;;9810325;30;20209;-84
2023/12/26 00:48:44;;;;;;;13.27;3.17;;;4.20;1.00;;;;;;9823483;30;20255;-85
2023/12/26 00:54:06;;;;;;;20.20;3.87;;;4.20;1.00;;;;;;9824196;30;20213;-85
2023/12/26 00:59:27;;;;;;;15.10;3.60;;;4.20;52.70;;;;;;9799360;30;20538;-86
2023/12/26 01:04:48;;;;;;;20.27;3.53;;;4.20;1.00;;;;;;9798536;30;20395;-86
2023/12/26 01:10:10;;;;;;;22.33;3.83;;;4.10;1.00;;;;;;9811430;30;20210;-83
2023/12/26 01:15:31;;;;;;;24.43;4.00;;;4.20;99.90;;;;;;9823506;30;20214;-85
2023/12/26 01:20:52;;;;;;;17.53;3.70;;;4.10;58.60;;;;;;9808149;30;20538;-78
2023/12/26 01:26:15;;;;;;;19.87;4.30;;;4.10;99.90;;;;;;9807833;30;20427;-83
2023/12/26 01:31:37;;;;;;;17.40;4.20;;;4.10;99.90;;;;;;9810029;30;20267;-86
2023/12/26 01:36:59;;;;;;;22.03;5.03;;;4.10;99.90;;;;;;9799020;30;20279;-84
2023/12/26 01:42:20;;;;;;;17.93;4.00;;;4.00;1.00;;;;;;9808744;30;20238;-78
2023/12/26 01:47:45;;;;;;;24.20;5.00;;;4.00;1.00;;;;;;9807755;30;20459;-78
2023/12/26 01:53:06;;;;;;;20.23;4.93;;;4.00;1.00;;;;;;9808449;30;20503;-78
2023/12/26 01:58:28;;;;;;;18.60;4.50;;;3.90;1.00;;;;;;9795151;30;20239;-78
2023/12/26 02:03:49;;;;;;;15.97;4.33;;;3.90;4.90;;;;;;9806110;30;20232;-78
2023/12/26 02:09:11;;;;;;;17.43;4.30;;;4.00;1.00;;;;;;9819514;30;20209;-79
2023/12/26 02:14:32;;;;;;;19.63;5.13;;;4.00;1.00;;;;;;9818930;30;20236;-80
2023/12/26 02:19:54;;;;;;;17.37;4.10;;;4.00;1.00;;;;;;9819026;30;20254;-81
2023/12/26 02:25:16;;;;;;;20.70;4.30;;;4.00;1.00;;;;;;9794038;30;20223;-80
2023/12/26 02:30:38;;;;;;;19.90;4.70;;;4.00;59.00;;;;;;9816207;30;20221;-81
2023/12/26 02:36:00;;;;;;;18.57;4.07;;;4.00;1.00;;;;;;9806035;30;20211;-79
2023/12/26 02:41:22;;;;;;;13.07;2.83;;;4.00;1.00;;;;;;9805584;30;20246;-78
2023/12/26 02:46:43;;;;;;;14.33;3.60;;;4.00;99.90;;;;;;9818275;30;20199;-79
2023/12/26 02:52:04;;;;;;;15.33;3.37;;;4.00;99.90;;;;;;9805394;30;20216;-81
2023/12/26 02:57:26;;;;;;;16.27;3.90;;;4.00;99.90;;;;;;9813199;30;20245;-79
2023/12/26 03:02:47;;;;;;;16.20;3.17;;;4.00;99.90;;;;;;9805309;30;20519;-81
2023/12/26 03:08:09;;;;;;;11.07;3.43;;;4.00;44.60;;;;;;9804953;30;20209;-78
2023/12/26 03:13:31;;;;;;;20.03;3.47;;;4.00;99.90;;;;;;9804999;30;20208;-80
2023/12/26 03:18:52;;;;;;;19.50;3.97;;;4.00;99.90;;;;;;9813276;30;20236;-78
2023/12/26 03:24:13;;;;;;;19.07;4.70;;;4.00;1.00;;;;;;9816859;30;20259;-79
2023/12/26 03:29:35;;;;;;;13.30;3.90;;;4.00;99.90;;;;;;9792706;30;20211;-80
2023/12/26 03:34:56;;;;;;;20.90;4.30;;;4.00;1.00;;;;;;9805071;30;20196;-79
2023/12/26 03:40:18;;;;;;;18.50;5.10;;;4.10;1.00;;;;;;9816909;30;20316;-80
2023/12/26 03:45:39;;;;;;;19.17;4.70;;;4.10;99.90;;;;;;9822855;30;20275;-78
2023/12/26 03:51:02;;;;;;;15.47;5.00;;;4.10;1.00;;;;;;9799190;30;20492;-78
2023/12/26 03:56:23;;;;;;;29.87;7.23;;;4.10;99.90;;;;;;9810489;30;20406;-87
2023/12/26 04:01:45;;;;;;;25.50;7.03;;;4.10;99.90;;;;;;9824570;30;20237;-80
2023/12/26 04:07:08;;;;;;;23.53;5.00;;;4.00;1.00;;;;;;9810802;30;20208;-78
2023/12/26 04:12:31;;;;;;;14.80;3.83;;;4.00;99.90;;;;;;9811437;30;20205;-78
2023/12/26 04:17:53;;;;;;;17.37;3.80;;;3.90;1.00;;;;;;9822991;30;20232;-79
2023/12/26 04:23:14;;;;;;;15.87;3.60;;;3.90;1.00;;;;;;9810875;30;20215;-83
2023/12/26 04:28:35;;;;;;;15.53;3.47;;;3.90;99.90;;;;;;9810551;30;20204;-82
2023/12/26 04:33:57;;;;;;;20.53;3.77;;;3.90;1.00;;;;;;9822890;30;20212;-79
2023/12/26 04:39:18;;;;;;;16.70;3.20;;;3.90;1.00;;;;;;9823494;30;20247;-87
2023/12/26 04:44:40;;;;;;;15.47;3.47;;;3.90;1.00;;;;;;9810829;30;20210;-87
2023/12/26 04:50:01;;;;;;;14.37;3.53;;;3.90;1.00;;;;;;9797519;30;20248;-86
2023/12/26 04:55:23;;;;;;;18.83;3.37;;;3.90;1.00;;;;;;9807449;30;20210;-78
2023/12/26 05:00:44;;;;;;;15.10;3.53;;;3.90;1.00;;;;;;9809192;30;20282;-80
2023/12/26 05:06:07;;;;;;;10.27;4.57;;;4.00;1.00;;;;;;9820483;30;20235;-80
2023/12/26 05:11:28;;;;;;;9.80;4.00;;;4.00;29.80;;;;;;9821595;30;20228;-79
2023/12/26 05:16:50;;;;;;;18.17;5.43;;;4.00;67.00;;;;;;9808729;30;20208;-78
2023/12/26 05:22:12;;;;;;;11.90;4.90;;;4.10;9.80;;;;;;9809481;30;20240;-86
2023/12/26 05:27:33;;;;;;;12.87;4.30;;;4.00;60.50;;;;;;9807711;30;20218;-80
2023/12/26 05:32:55;;;;;;;11.70;3.33;;;4.10;41.40;;;;;;9795830;30;20562;-79
2023/12/26 05:38:17;;;;;;;14.20;4.10;;;4.10;99.90;;;;;;9808299;30;20235;-81
2023/12/26 05:43:38;;;;;;;9.37;3.30;;;4.10;99.90;;;;;;9820013;30;20213;-80
2023/12/26 05:48:59;;;;;;;8.70;3.23;;;4.10;99.90;;;;;;9808170;30;20312;-80
2023/12/26 05:54:21;;;;;;;7.47;2.83;;;4.10;99.90;;;;;;9794547;30;20367;-82
2023/12/26 05:59:42;;;;;;;7.53;2.13;;;4.20;99.90;;;;;;9794949;30;20256;-80
2023/12/26 06:05:04;;;;;;;6.37;2.33;;;4.30;99.90;;;;;;9794750;30;20220;-81
2023/12/26 06:10:25;;;;;;;2.93;1.60;;;4.50;99.90;;;;;;9819517;30;20204;-81
2023/12/26 06:15:47;;;;;;;4.40;2.00;;;4.50;99.90;;;;;;9806640;30;20209;-80
2023/12/26 06:21:10;;;;;;;18.53;8.90;;;4.50;99.90;;;;;;9818861;30;20231;-80
2023/12/26 06:26:32;;;;;;;10.23;2.90;;;4.60;99.90;;;;;;9818097;30;20229;-80
2023/12/26 06:31:53;;;;;;;8.93;4.33;;;4.70;99.90;;;;;;9806147;30;20213;-79
2023/12/26 06:37:15;;;;;;;9.70;2.90;;;4.80;99.90;;;;;;9806041;30;20398;-81
2023/12/26 06:42:37;;;;;;;3.37;2.20;;;4.80;99.90;;;;;;9818449;30;20258;-79
2023/12/26 06:48:00;;;;;;;5.43;2.70;;;4.80;99.90;;;;;;9805740;30;20313;-87
2023/12/26 06:53:21;;;;;;;6.07;3.40;;;4.80;99.90;;;;;;9805699;30;20465;-79
2023/12/26 06:58:43;;;;;;;9.23;3.50;;;4.90;99.90;;;;;;9804482;30;20239;-78
2023/12/26 07:04:05;;;;;;;10.00;6.97;;;4.90;99.90;;;;;;9805539;30;20200;-80
2023/12/26 07:09:26;;;;;;;4.80;3.10;;;4.90;99.90;;;;;;9805614;30;20243;-80
2023/12/26 07:14:48;;;;;;;6.80;2.70;;;5.00;99.90;;;;;;9804717;30;20216;-80
2023/12/26 07:20:10;;;;;;;8.83;3.23;;;5.00;99.90;;;;;;9817185;30;20582;-79
2023/12/26 07:25:31;;;;;;;3.13;2.60;;;5.00;99.90;;;;;;9813564;30;20208;-80
2023/12/26 07:30:53;;;;;;;3.30;2.57;;;5.10;99.90;;;;;;9805129;30;20212;-80
2023/12/26 07:36:15;;;;;;;3.10;2.37;;;5.20;99.90;;;;;;9805257;30;20209;-80
2023/12/26 07:41:37;;;;;;;5.50;2.67;;;5.30;99.90;;;;;;9804642;30;20263;-79
2023/12/26 07:46:58;;;;;;;3.47;2.10;;;5.40;99.90;;;;;;9818682;30;20219;-81
2023/12/26 07:52:19;;;;;;;6.43;3.60;;;5.60;99.90;;;;;;9804048;30;20248;-80
2023/12/26 07:57:40;;;;;;;7.30;3.80;;;5.60;99.90;;;;;;9816924;30;20202;-79
2023/12/26 08:03:02;;;;;;;8.57;4.50;;;5.60;99.90;;;;;;9816602;30;20217;-80
2023/12/26 08:08:23;;;;;;;22.67;13.43;;;5.70;99.90;;;;;;9817711;30;20200;-81
2023/12/26 08:13:44;;;;;;;5.90;3.97;;;5.70;99.90;;;;;;9817520;30;20212;-79
2023/12/26 08:19:06;;;;;;;6.27;3.40;;;5.90;99.90;;;;;;9816116;30;20321;-80
2023/12/26 08:24:27;;;;;;;6.07;3.13;;;6.00;99.90;;;;;;9817317;30;20212;-79
2023/12/26 08:29:49;;;;;;;6.87;2.60;;;6.10;99.90;;;;;;9818522;30;20241;-80
2023/12/26 08:35:11;;;;;;;7.30;3.37;;;6.10;99.90;;;;;;9823157;30;20214;-79
2023/12/26 08:40:32;;;;;;;1.97;1.60;;;6.20;99.90;;;;;;9822706;30;20254;-78
2023/12/26 08:45:54;;;;;;;4.30;1.60;;;6.30;99.90;;;;;;9811637;30;20208;-79
2023/12/26 08:51:15;;;;;;;2.37;1.70;;;6.30;99.90;;;;;;9822275;30;20450;-79
2023/12/26 08:56:39;;;;;;;2.03;1.53;;;6.40;99.90;;;;;;9809382;30;20263;-84
2023/12/26 09:02:00;;;;;;;1.37;1.17;;;6.50;99.90;;;;;;9820568;30;20292;-80
2023/12/26 09:07:22;;;;;;;1.57;1.13;;;6.70;99.90;;;;;;9810082;30;20208;-80
2023/12/26 09:12:44;;;;;;;3.97;1.87;;;6.80;99.90;;;;;;9809228;30;20206;-78
2023/12/26 09:18:05;;;;;;;3.27;1.90;;;6.80;99.90;;;;;;9808354;30;20511;-79
2023/12/26 09:23:27;;;;;;;3.13;1.23;;;6.80;99.90;;;;;;9821141;30;20389;-78
2023/12/26 09:28:49;;;;;;;2.27;0.87;;;6.80;99.90;;;;;;9808007;30;20217;-81
2023/12/26 09:34:10;;;;;;;5.00;0.97;;;6.80;99.90;;;;;;9820855;30;20488;-80
2023/12/26 09:39:31;;;;;;;6.27;1.60;;;6.90;99.90;;;;;;9795366;30;20248;-79
2023/12/26 09:44:53;;;;;;;3.13;1.10;;;6.90;99.90;;;;;;9821268;30;20202;-79
2023/12/26 09:50:14;;;;;;;8.03;3.30;;;7.10;99.90;;;;;;9819902;30;20265;-80
2023/12/26 09:55:36;;;;;;;7.03;1.90;;;7.30;1.00;;;;;;9807566;30;20209;-79
2023/12/26 10:00:57;;;;;;;17.73;4.83;;;7.30;1.00;;;;;;9794245;30;20317;-89
2023/12/26 10:06:18;;;;;;;6.63;2.27;;;7.20;1.00;;;;;;9795275;30;20212;-81
2023/12/26 10:11:44;;;;;;;6.43;1.40;;;7.30;1.00;;;;;;9795237;30;20246;-80
2023/12/26 10:17:07;;;;;;;5.93;1.57;;;7.30;1.00;;;;;;9819997;30;20230;-87
2023/12/26 10:22:31;;;;;;;4.33;1.87;;;7.30;99.90;;;;;;9819131;30;20241;-80
2023/12/26 10:27:55;;;;;;;5.37;2.40;;;7.20;1.00;;;;;;9794135;30;20217;-87
2023/12/26 10:33:25;;;;;;;4.90;1.47;;;7.30;58.40;;;;;;9818324;30;20520;-89
2023/12/26 10:38:47;;;;;;;5.30;1.40;;;7.30;99.90;;;;;;9806572;30;20414;-88
2023/12/26 10:44:10;;;;;;;5.13;2.00;;;7.20;1.00;;;;;;9819864;30;20201;-79
2023/12/26 10:49:31;;;;;;;2.37;1.23;;;7.20;1.00;;;;;;9818626;30;20307;-89
2023/12/26 10:54:58;;;;;;;7.90;1.67;;;7.20;1.00;;;;;;9818922;30;20281;-82
2023/12/26 11:00:20;;;;;;;4.07;1.43;;;7.20;8.10;;;;;;9805329;30;20358;-84
2023/12/26 11:05:42;;;;;;;3.20;1.37;;;7.30;1.00;;;;;;9818178;30;20201;-82
2023/12/26 11:11:04;;;;;;;4.80;0.90;;;7.30;1.00;;;;;;9805156;30;20224;-82
2023/12/26 11:16:25;;;;;;;6.33;1.37;;;7.40;1.00;;;;;;9804370;30;20206;-80
2023/12/26 11:21:46;;;;;;;7.53;1.67;;;7.40;1.00;;;;;;9783563;30;20437;-87
2023/12/26 11:27:07;;;;;;;5.97;1.90;;;7.30;1.00;;;;;;9782084;30;20256;-85
2023/12/26 11:32:29;;;;;;;6.13;1.10;;;7.40;1.00;;;;;;9805213;30;20213;-89
2023/12/26 11:37:51;;;;;;;6.37;1.60;;;7.40;1.00;;;;;;9817683;30;20428;-82
2023/12/26 11:43:15;;;;;;;7.67;1.43;;;7.40;99.90;;;;;;9805729;30;20238;-90
2023/12/26 11:48:37;;;;;;;8.33;1.20;;;7.20;99.90;;;;;;9817082;30;20258;-85
2023/12/26 11:53:58;;;;;;;3.97;1.10;;;7.10;1.00;;;;;;9804821;30;20210;-80
2023/12/26 11:59:20;;;;;;;4.67;1.10;;;7.10;1.00;;;;;;9816517;30;20252;-79
2023/12/26 12:04:41;;;;;;;5.57;1.27;;;7.10;8.50;;;;;;9819953;30;20214;-82
2023/12/26 12:10:09;;;;;;;3.27;1.20;;;7.10;1.00;;;;;;9811541;30;20217;-82
2023/12/26 12:15:31;;;;;;;6.03;1.00;;;7.00;99.90;;;;;;9792404;30;20249;-85
2023/12/26 12:20:53;;;;;;;6.07;1.30;;;7.00;3.90;;;;;;9817478;30;20532;-86
2023/12/26 12:26:14;;;;;;;3.90;1.20;;;6.90;1.00;;;;;;9823858;30;20508;-82
2023/12/26 12:31:36;;;;;;;4.70;1.67;;;6.90;43.60;;;;;;9798455;30;20272;-84
2023/12/26 12:36:57;;;;;;;3.40;1.13;;;6.90;99.90;;;;;;9810338;30;20210;-88
2023/12/26 12:42:19;;;;;;;3.53;1.27;;;6.80;99.90;;;;;;9801273;30;20241;-90
2023/12/26 12:47:40;;;;;;;3.73;1.30;;;6.80;99.90;;;;;;9822647;30;20245;-89
2023/12/26 12:53:04;;;;;;;3.50;1.40;;;6.90;99.90;;;;;;9774615;30;20209;-90
2023/12/26 12:58:25;;;;;;;4.60;1.53;;;6.80;1.00;;;;;;9792142;30;20221;-80
2023/12/26 13:03:46;;;;;;;4.97;1.43;;;6.80;1.00;;;;;;9823179;30;20500;-87
2023/12/26 13:09:08;;;;;;;3.73;1.33;;;6.80;1.00;;;;;;9797554;30;20269;-81
2023/12/26 13:14:29;;;;;;;3.40;1.17;;;6.70;1.00;;;;;;9808392;30;20208;-81
2023/12/26 13:19:51;;;;;;;6.27;1.37;;;6.70;1.00;;;;;;9819832;30;20329;-79
2023/12/26 13:25:13;;;;;;;3.70;1.30;;;6.70;1.00;;;;;;9796881;30;20213;-88
2023/12/26 13:30:34;;;;;;;5.30;1.03;;;6.70;1.00;;;;;;9809231;30;20201;-80
2023/12/26 13:35:55;;;;;;;3.27;1.07;;;6.60;1.00;;;;;;9809065;30;20453;-89
2023/12/26 13:41:16;;;;;;;5.23;1.53;;;6.60;1.00;;;;;;9821249;30;20332;-87
2023/12/26 13:46:38;;;;;;;3.77;1.03;;;6.60;1.00;;;;;;9808543;30;20215;-79
2023/12/26 13:51:59;;;;;;;8.70;1.80;;;6.50;1.00;;;;;;9819651;30;20244;-87
2023/12/26 13:57:21;;;;;;;3.33;1.10;;;6.50;1.00;;;;;;9819123;30;20244;-86
2023/12/26 14:02:42;;;;;;;6.03;1.23;;;6.60;1.00;;;;;;9807794;30;20241;-88
2023/12/26 14:08:05;;;;;;;1.43;0.60;;;6.50;1.00;;;;;;9820633;30;20205;-89
2023/12/26 14:13:26;;;;;;;1.90;0.90;;;6.50;1.00;;;;;;9807787;30;20205;-86
2023/12/26 14:18:47;;;;;;;3.70;1.03;;;6.40;1.00;;;;;;9815088;30;20216;-87
2023/12/26 14:24:09;;;;;;;3.40;1.03;;;6.40;1.00;;;;;;9807483;30;20271;-89
2023/12/26 14:29:30;;;;;;;2.23;1.10;;;6.30;1.00;;;;;;9807143;30;20213;-80
2023/12/26 14:34:51;;;;;;;2.57;1.10;;;6.20;99.90;;;;;;9819072;30;20208;-81
2023/12/26 14:40:13;;;;;;;4.30;1.33;;;6.20;99.90;;;;;;9806227;30;20263;-80
2023/12/26 14:45:34;;;;;;;5.20;1.00;;;6.20;99.90;;;;;;9818678;30;20209;-84
2023/12/26 14:50:55;;;;;;;2.43;1.40;;;6.20;99.20;;;;;;9817969;30;20312;-86
2023/12/26 14:56:16;;;;;;;8.23;1.73;;;6.20;1.00;;;;;;9806073;30;20481;-89
2023/12/26 15:01:38;;;;;;;3.53;1.70;;;6.10;1.00;;;;;;9806299;30;20245;-88
2023/12/26 15:07:04;;;;;;;2.53;0.90;;;6.10;1.00;;;;;;9806095;30;20205;-79
2023/12/26 15:12:25;;;;;;;1.47;0.80;;;6.00;1.00;;;;;;9819050;30;20209;-80
2023/12/26 15:17:46;;;;;;;1.63;0.90;;;5.90;1.00;;;;;;9788519;30;20230;-84
2023/12/26 15:23:07;;;;;;;3.50;1.33;;;5.90;1.00;;;;;;9818434;30;20304;-84
2023/12/26 15:28:29;;;;;;;1.30;1.07;;;5.70;1.00;;;;;;9818925;30;20207;-85
2023/12/26 15:33:50;;;;;;;2.10;1.03;;;5.60;99.90;;;;;;9818666;30;20203;-85
2023/12/26 15:39:11;;;;;;;3.23;1.60;;;5.50;1.00;;;;;;9820691;30;20221;-89
2023/12/26 15:44:33;;;;;;;1.40;1.03;;;5.30;1.00;;;;;;9813935;30;20228;-90
2023/12/26 15:49:56;;;;;;;1.30;0.97;;;5.40;1.00;;;;;;9812061;30;20256;-89
2023/12/26 15:55:20;;;;;;;1.57;0.80;;;5.30;99.90;;;;;;9815202;30;20210;-89
2023/12/26 16:00:41;;;;;;;1.00;0.80;;;5.10;99.90;;;;;;9803451;30;20298;-82
2023/12/26 16:06:02;;;;;;;1.97;1.00;;;5.10;99.90;;;;;;9829489;30;20209;-81
2023/12/26 16:11:24;;;;;;;3.23;2.27;;;5.00;99.90;;;;;;9831338;30;20197;-89
2023/12/26 16:16:45;;;;;;;5.43;2.60;;;4.90;99.90;;;;;;9817776;30;20227;-85
2023/12/26 16:22:06;;;;;;;3.23;1.43;;;4.80;99.90;;;;;;9815558;30;20247;-86
2023/12/26 16:27:28;;;;;;;0.50;0.50;;;4.90;1.00;;;;;;9831190;30;20202;-80
2023/12/26 16:32:49;;;;;;;1.73;0.73;;;4.80;1.00;;;;;;9819193;30;20570;-88
2023/12/26 16:38:10;;;;;;;0.70;0.70;;;4.60;99.90;;;;;;9817029;30;20305;-89
2023/12/26 16:43:31;;;;;;;2.43;0.80;;;4.50;1.00;;;;;;9818300;30;20391;-87
2023/12/26 16:48:53;;;;;;;1.80;0.60;;;4.50;1.00;;;;;;9814114;30;20253;-84
2023/12/26 16:54:14;;;;;;;0.53;0.50;;;4.40;78.50;;;;;;9826107;30;20204;-79
2023/12/26 16:59:39;;;;;;;0.90;0.60;;;4.50;1.00;;;;;;9801545;30;20305;-79
2023/12/26 17:05:00;;;;;;;1.40;0.73;;;4.40;1.00;;;;;;9827978;30;20197;-79
2023/12/26 17:10:21;;;;;;;4.43;1.87;;;4.40;1.00;;;;;;9828893;30;20282;-79
2023/12/26 17:15:43;;;;;;;3.00;1.03;;;4.40;1.00;;;;;;9804085;30;20376;-83
2023/12/26 17:21:04;;;;;;;1.70;1.10;;;4.40;99.90;;;;;;9822264;30;20236;-84
2023/12/26 17:26:26;;;;;;;2.53;1.50;;;4.40;1.00;;;;;;9821166;30;20229;-79
2023/12/26 17:31:58;;;;;;;3.13;1.60;;;4.40;1.00;;;;;;9820907;30;20212;-82
2023/12/26 17:37:19;;;;;;;0.80;0.70;;;4.40;1.00;;;;;;9808218;30;20228;-85
2023/12/26 17:42:40;;;;;;;1.30;0.80;;;4.50;1.00;;;;;;9808189;30;20305;-84
2023/12/26 17:48:02;;;;;;;1.00;0.90;;;4.40;1.00;;;;;;9805729;30;20257;-82
2023/12/26 17:53:23;;;;;;;1.83;0.90;;;4.40;1.00;;;;;;9792956;30;20269;-86
2023/12/26 17:58:44;;;;;;;1.80;1.10;;;4.40;1.00;;;;;;9808362;30;20283;-83
2023/12/26 18:04:06;;;;;;;0.93;0.70;;;4.50;1.00;;;;;;9818251;30;20314;-82
2023/12/26 18:09:28;;;;;;;1.87;1.17;;;4.50;1.00;;;;;;9807621;30;20235;-83
2023/12/26 18:14:50;;;;;;;1.00;0.83;;;4.50;1.00;;;;;;9805192;30;20407;-79
2023/12/26 18:20:11;;;;;;;2.80;1.20;;;4.50;99.90;;;;;;9803038;30;20236;-80
2023/12/26 18:25:33;;;;;;;3.53;1.07;;;4.50;1.00;;;;;;9820327;30;20251;-79
2023/12/26 18:30:54;;;;;;;2.10;1.10;;;4.50;1.00;;;;;;9794484;30;20207;-83
2023/12/26 18:36:15;;;;;;;2.40;1.80;;;4.60;99.90;;;;;;9818729;30;20283;-84
2023/12/26 18:41:41;;;;;;;3.07;1.70;;;4.60;99.90;;;;;;9818926;30;20364;-83
2023/12/26 18:47:02;;;;;;;3.90;1.37;;;4.50;99.90;;;;;;9817512;30;20201;-80
2023/12/26 18:52:23;;;;;;;2.20;1.20;;;4.40;99.90;;;;;;9805831;30;20223;-82
2023/12/26 18:57:45;;;;;;;4.77;1.63;;;4.50;1.00;;;;;;9792355;30;20562;-80
2023/12/26 19:03:06;;;;;;;8.27;2.10;;;4.50;1.00;;;;;;9818067;30;20231;-81
2023/12/26 19:08:27;;;;;;;3.63;1.33;;;4.40;1.00;;;;;;9818060;30;20280;-81
2023/12/26 19:13:49;;;;;;;4.13;1.60;;;4.40;1.00;;;;;;9817324;30;20499;-88
2023/12/26 19:19:10;;;;;;;3.80;1.60;;;4.40;1.00;;;;;;9817132;30;20215;-81
2023/12/26 19:24:31;;;;;;;4.13;1.60;;;4.40;1.00;;;;;;9805378;30;20217;-83
2023/12/26 19:29:52;;;;;;;1.70;0.97;;;4.50;1.00;;;;;;9805163;30;20242;-82
2023/12/26 19:35:14;;;;;;;3.30;1.10;;;4.40;1.00;;;;;;9817517;30;20209;-81
2023/12/26 19:40:35;;;;;;;3.20;1.70;;;4.40;99.90;;;;;;9805888;30;20238;-85
2023/12/26 19:45:56;;;;;;;3.60;1.50;;;4.40;99.90;;;;;;9793094;30;20208;-85
2023/12/26 19:51:18;;;;;;;1.07;0.90;;;4.40;99.90;;;;;;9802959;30;20252;-80
2023/12/26 19:56:40;;;;;;;4.20;1.17;;;4.40;92.20;;;;;;9792550;30;20260;-82
2023/12/26 20:02:02;;;;;;;3.47;1.63;;;4.40;99.90;;;;;;9792334;30;20241;-84
2023/12/26 20:07:24;;;;;;;3.73;1.50;;;4.40;1.00;;;;;;9804552;30;20399;-82
2023/12/26 20:12:45;;;;;;;2.97;1.27;;;4.30;1.00;;;;;;9804725;30;20219;-83
2023/12/26 20:18:07;;;;;;;3.30;1.47;;;4.30;1.00;;;;;;9783641;30;20231;-80
2023/12/26 20:23:29;;;;;;;2.27;1.33;;;4.30;99.90;;;;;;9816648;30;20242;-79
2023/12/26 20:28:50;;;;;;;1.70;0.80;;;4.30;99.90;;;;;;9810018;30;20195;-81
2023/12/26 20:34:12;;;;;;;3.37;1.20;;;4.10;1.00;;;;;;9802204;30;20204;-84
2023/12/26 20:39:33;;;;;;;4.17;1.50;;;4.00;1.00;;;;;;9822826;30;20216;-80
2023/12/26 20:44:55;;;;;;;1.63;0.60;;;4.00;1.00;;;;;;9810338;30;20211;-80
2023/12/26 20:50:17;;;;;;;2.33;0.70;;;4.00;1.00;;;;;;9798881;30;20275;-84
2023/12/26 20:55:40;;;;;;;0.60;0.60;;;3.90;1.00;;;;;;9797785;30;20240;-81
2023/12/26 21:01:02;;;;;;;0.50;0.50;;;3.60;1.00;;;;;;9822424;30;20295;-85
2023/12/26 21:06:24;;;;;;;2.93;0.90;;;3.60;99.90;;;;;;9810174;30;20219;-82
2023/12/26 21:11:45;;;;;;;2.43;1.13;;;3.50;1.00;;;;;;9809982;30;20203;-87
2023/12/26 21:17:07;;;;;;;2.20;0.70;;;3.60;1.00;;;;;;9805906;30;20268;-84
2023/12/26 21:22:29;;;;;;;3.53;1.13;;;3.60;99.90;;;;;;9785568;30;20307;-86
2023/12/26 21:27:50;;;;;;;3.57;1.07;;;3.60;99.90;;;;;;9809388;30;20208;-80
2023/12/26 21:33:12;;;;;;;3.33;0.90;;;3.60;99.90;;;;;;9821175;30;20231;-83
2023/12/26 21:38:33;;;;;;;2.03;0.80;;;3.60;1.00;;;;;;9819965;30;20208;-83
2023/12/26 21:43:54;;;;;;;1.37;0.70;;;3.70;99.90;;;;;;9808027;30;20239;-85
2023/12/26 21:49:16;;;;;;;2.40;1.20;;;3.80;99.90;;;;;;9819261;30;20259;-79
2023/12/26 21:54:40;;;;;;;1.60;0.87;;;3.90;1.00;;;;;;9808099;30;20517;-81
2023/12/26 22:00:04;;;;;;;2.97;0.80;;;3.70;1.00;;;;;;9819846;30;20274;-81
2023/12/26 22:05:25;;;;;;;1.80;0.60;;;3.50;1.00;;;;;;9795823;30;20397;-85
2023/12/26 22:10:47;;;;;;;0.97;0.50;;;3.40;1.00;;;;;;9808014;30;20212;-88
2023/12/26 22:16:16;;;;;;;2.93;0.90;;;3.10;99.90;;;;;;9819384;30;20214;-84
2023/12/26 22:21:42;;;;;;;0.90;0.53;;;3.00;1.00;;;;;;9807320;30;20231;-81
2023/12/26 22:27:03;;;;;;;1.93;0.80;;;2.90;99.90;;;;;;9820411;30;20298;-89
2023/12/26 22:32:24;;;;;;;2.37;0.97;;;3.10;1.00;;;;;;9819443;30;20294;-80
2023/12/26 22:37:46;;;;;;;1.53;0.53;;;3.10;99.90;;;;;;9794717;30;20207;-84
2023/12/26 22:43:07;;;;;;;1.60;0.80;;;3.20;99.90;;;;;;9806423;30;20246;-85
2023/12/26 22:48:30;;;;;;;3.00;0.90;;;3.20;99.90;;;;;;9817459;30;20462;-80
2023/12/26 22:53:52;;;;;;;4.80;0.60;;;3.30;1.00;;;;;;9819164;30;20204;-83
2023/12/26 22:59:15;;;;;;;2.13;1.00;;;3.30;99.90;;;;;;9806127;30;20212;-87
2023/12/26 23:04:40;;;;;;;5.27;0.87;;;3.30;1.00;;;;;;9806267;30;20312;-87
2023/12/26 23:10:02;;;;;;;3.57;1.03;;;3.50;99.90;;;;;;9818334;30;20218;-86
2023/12/26 23:15:23;;;;;;;5.57;1.20;;;3.60;99.90;;;;;;9793745;30;20208;-88
2023/12/26 23:20:44;;;;;;;5.70;1.20;;;3.70;99.90;;;;;;9794875;30;20236;-89
2023/12/26 23:26:15;;;;;;;5.40;1.17;;;3.70;99.90;;;;;;9806103;30;20254;-80
2023/12/26 23:31:38;;;;;;;5.30;1.20;;;3.80;1.00;;;;;;9819811;30;20395;-84
2023/12/26 23:37:00;;;;;;;6.30;1.23;;;3.80;99.90;;;;;;9818105;30;20203;-82
2023/12/26 23:42:21;;;;;;;4.10;0.83;;;3.80;1.00;;;;;;9805562;30;20231;-84
2023/12/26 23:47:44;;;;;;;5.93;0.97;;;3.70;1.00;;;;;;9805430;30;20274;-89
2023/12/26 23:53:05;;;;;;;6.77;1.07;;;3.70;46.20;;;;;;9818195;30;20483;-80
2023/12/26 23:58:26;;;;;;;4.13;0.80;;;3.70;99.90;;;;;;9781597;30;20204;-87
